createdAt,value
2023-06-29T00:00:20.217Z,419.00
2023-06-29T00:01:20.309Z,421.00
2023-06-29T00:02:20.343Z,422.00
2023-06-29T00:03:20.555Z,424.00
2023-06-29T00:04:20.457Z,423.00
2023-06-29T00:05:20.495Z,422.00
2023-06-29T00:06:20.571Z,421.00
2023-06-29T00:07:20.668Z,422.00
2023-06-29T00:08:20.675Z,420.00
2023-06-29T00:09:20.730Z,418.00
2023-06-29T00:10:20.795Z,416.00
2023-06-29T00:11:20.830Z,417.00
2023-06-29T00:12:20.897Z,417.00
2023-06-29T00:13:20.951Z,417.00
2023-06-29T00:14:20.955Z,418.00
2023-06-29T00:15:21.008Z,417.00
2023-06-29T00:16:21.114Z,417.00
2023-06-29T00:17:21.156Z,417.00
2023-06-29T00:18:21.135Z,419.00
2023-06-29T00:19:21.153Z,416.00
2023-06-29T00:20:21.187Z,416.00
2023-06-29T00:21:23.568Z,417.00
2023-06-29T00:22:21.243Z,418.00
2023-06-29T00:23:21.225Z,420.00
2023-06-29T00:24:21.201Z,420.00
2023-06-29T00:25:21.214Z,420.00
2023-06-29T00:26:21.189Z,420.00
2023-06-29T00:27:21.191Z,421.00
2023-06-29T00:28:21.191Z,420.00
2023-06-29T00:29:21.184Z,417.00
2023-06-29T00:30:21.173Z,414.00
2023-06-29T00:31:21.224Z,415.00
2023-06-29T00:32:21.221Z,412.00
2023-06-29T00:33:21.156Z,414.00
2023-06-29T00:34:21.147Z,417.00
2023-06-29T00:35:21.124Z,419.00
2023-06-29T00:36:21.126Z,419.00
2023-06-29T00:37:21.133Z,420.00
2023-06-29T00:38:21.117Z,422.00
2023-06-29T00:39:21.099Z,420.00
2023-06-29T00:40:21.102Z,421.00
2023-06-29T00:41:21.110Z,422.00
2023-06-29T00:42:21.107Z,419.00
2023-06-29T00:43:21.090Z,418.00
2023-06-29T00:44:21.062Z,419.00
2023-06-29T00:45:21.080Z,419.00
2023-06-29T00:46:21.103Z,419.00
2023-06-29T00:47:21.041Z,419.00
2023-06-29T00:48:21.050Z,420.00
2023-06-29T00:49:21.044Z,420.00
2023-06-29T00:50:21.030Z,418.00
2023-06-29T00:51:21.030Z,418.00
2023-06-29T00:52:21.025Z,420.00
2023-06-29T00:53:21.030Z,419.00
2023-06-29T00:54:21.017Z,422.00
2023-06-29T00:55:21.020Z,423.00
2023-06-29T00:56:20.983Z,425.00
2023-06-29T00:57:20.990Z,423.00
2023-06-29T00:58:20.970Z,423.00
2023-06-29T00:59:20.974Z,425.00
2023-06-29T01:00:20.990Z,423.00
2023-06-29T01:01:21.013Z,422.00
2023-06-29T01:02:20.955Z,421.00
2023-06-29T01:03:21.035Z,420.00
2023-06-29T01:04:20.940Z,420.00
2023-06-29T01:05:20.913Z,419.00
2023-06-29T01:06:20.911Z,420.00
2023-06-29T01:07:20.930Z,421.00
2023-06-29T01:08:20.912Z,421.00
2023-06-29T01:09:20.899Z,421.00
2023-06-29T01:10:20.882Z,421.00
2023-06-29T01:11:20.890Z,419.00
2023-06-29T01:12:20.887Z,420.00
2023-06-29T01:13:20.868Z,419.00
2023-06-29T01:14:20.878Z,419.00
2023-06-29T01:15:20.860Z,419.00
2023-06-29T01:16:20.895Z,421.00
2023-06-29T01:17:20.854Z,421.00
2023-06-29T01:18:20.866Z,421.00
2023-06-29T01:19:20.837Z,422.00
2023-06-29T01:20:20.862Z,420.00
2023-06-29T01:21:20.832Z,420.00
2023-06-29T01:22:20.854Z,417.00
2023-06-29T01:23:20.809Z,417.00
2023-06-29T01:24:20.801Z,415.00
2023-06-29T01:25:20.783Z,413.00
2023-06-29T01:26:20.803Z,413.00
2023-06-29T01:27:20.777Z,413.00
2023-06-29T01:28:20.763Z,415.00
2023-06-29T01:29:20.764Z,418.00
2023-06-29T01:30:20.761Z,421.00
2023-06-29T01:31:20.785Z,423.00
2023-06-29T01:32:20.763Z,423.00
2023-06-29T01:33:20.750Z,424.00
2023-06-29T01:34:20.713Z,425.00
2023-06-29T01:35:20.724Z,424.00
2023-06-29T01:36:20.728Z,423.00
2023-06-29T01:37:20.699Z,423.00
2023-06-29T01:38:20.720Z,422.00
2023-06-29T01:39:20.693Z,421.00
2023-06-29T01:40:20.711Z,421.00
2023-06-29T01:41:20.700Z,421.00
2023-06-29T01:42:20.662Z,419.00
2023-06-29T01:43:20.669Z,420.00
2023-06-29T01:44:20.680Z,418.00
2023-06-29T01:45:20.670Z,419.00
2023-06-29T01:46:20.661Z,417.00
2023-06-29T01:47:20.634Z,415.00
2023-06-29T01:48:20.650Z,413.00
2023-06-29T01:49:20.629Z,413.00
2023-06-29T01:50:20.614Z,416.00
2023-06-29T01:51:20.612Z,414.00
2023-06-29T01:52:20.617Z,416.00
2023-06-29T01:53:20.593Z,414.00
2023-06-29T01:54:20.614Z,414.00
2023-06-29T01:55:20.588Z,417.00
2023-06-29T01:56:20.563Z,417.00
2023-06-29T01:57:20.569Z,418.00
2023-06-29T01:58:20.554Z,419.00
2023-06-29T01:59:20.557Z,418.00
2023-06-29T02:00:20.593Z,419.00
2023-06-29T02:01:20.599Z,420.00
2023-06-29T02:02:20.626Z,419.00
2023-06-29T02:03:20.568Z,419.00
2023-06-29T02:04:20.529Z,421.00
2023-06-29T02:05:20.509Z,420.00
2023-06-29T02:06:20.491Z,420.00
2023-06-29T02:07:20.548Z,424.00
2023-06-29T02:08:20.501Z,425.00
2023-06-29T02:09:20.490Z,423.00
2023-06-29T02:10:20.484Z,422.00
2023-06-29T02:11:20.553Z,421.00
2023-06-29T02:12:20.467Z,420.00
2023-06-29T02:13:20.461Z,420.00
2023-06-29T02:14:20.435Z,419.00
2023-06-29T02:15:20.441Z,421.00
2023-06-29T02:16:20.535Z,424.00
2023-06-29T02:17:20.434Z,426.00
2023-06-29T02:18:20.452Z,428.00
2023-06-29T02:19:20.425Z,428.00
2023-06-29T02:20:20.395Z,426.00
2023-06-29T02:21:20.397Z,427.00
2023-06-29T02:22:20.403Z,425.00
2023-06-29T02:23:20.408Z,425.00
2023-06-29T02:24:20.387Z,424.00
2023-06-29T02:25:20.370Z,425.00
2023-06-29T02:26:20.368Z,427.00
2023-06-29T02:27:20.376Z,427.00
2023-06-29T02:28:20.376Z,429.00
2023-06-29T02:29:20.362Z,431.00
2023-06-29T02:30:20.381Z,429.00
2023-06-29T02:31:20.363Z,427.00
2023-06-29T02:32:20.345Z,427.00
2023-06-29T02:33:20.371Z,427.00
2023-06-29T02:34:20.356Z,427.00
2023-06-29T02:35:20.372Z,425.00
2023-06-29T02:36:20.337Z,425.00
2023-06-29T02:37:20.345Z,424.00
2023-06-29T02:38:20.341Z,425.00
2023-06-29T02:39:20.342Z,426.00
2023-06-29T02:40:20.341Z,426.00
2023-06-29T02:41:20.330Z,427.00
2023-06-29T02:42:20.357Z,425.00
2023-06-29T02:43:20.344Z,424.00
2023-06-29T02:44:20.326Z,423.00
2023-06-29T02:45:20.338Z,424.00
2023-06-29T02:46:20.410Z,424.00
2023-06-29T02:47:20.349Z,425.00
2023-06-29T02:48:20.338Z,427.00
2023-06-29T02:49:20.329Z,426.00
2023-06-29T02:50:20.308Z,427.00
2023-06-29T02:51:20.313Z,428.00
2023-06-29T02:52:20.322Z,426.00
2023-06-29T02:53:20.327Z,429.00
2023-06-29T02:54:20.315Z,427.00
2023-06-29T02:55:20.324Z,425.00
2023-06-29T02:56:20.311Z,424.00
2023-06-29T02:57:20.328Z,422.00
2023-06-29T02:58:20.326Z,418.00
2023-06-29T02:59:20.342Z,419.00
2023-06-29T03:00:20.315Z,423.00
2023-06-29T03:01:20.357Z,424.00
2023-06-29T03:02:20.328Z,426.00
2023-06-29T03:03:20.419Z,425.00
2023-06-29T03:04:20.324Z,422.00
2023-06-29T03:05:20.326Z,423.00
2023-06-29T03:06:20.326Z,422.00
2023-06-29T03:07:20.346Z,424.00
2023-06-29T03:08:20.338Z,424.00
2023-06-29T03:09:20.378Z,423.00
2023-06-29T03:10:20.370Z,423.00
2023-06-29T03:11:20.321Z,423.00
2023-06-29T03:12:20.332Z,423.00
2023-06-29T03:13:20.337Z,422.00
2023-06-29T03:14:20.347Z,422.00
2023-06-29T03:15:20.356Z,419.00
2023-06-29T03:16:20.397Z,415.00
2023-06-29T03:17:20.382Z,416.00
2023-06-29T03:18:20.375Z,413.00
2023-06-29T03:19:20.373Z,414.00
2023-06-29T03:20:20.389Z,416.00
2023-06-29T03:21:20.398Z,420.00
2023-06-29T03:22:20.392Z,421.00
2023-06-29T03:23:20.405Z,420.00
2023-06-29T03:24:20.393Z,422.00
2023-06-29T03:25:20.419Z,421.00
2023-06-29T03:26:20.413Z,418.00
2023-06-29T03:27:20.452Z,417.00
2023-06-29T03:28:20.414Z,417.00
2023-06-29T03:29:20.425Z,416.00
2023-06-29T03:30:20.415Z,416.00
2023-06-29T03:31:20.460Z,417.00
2023-06-29T03:32:20.443Z,417.00
2023-06-29T03:33:20.454Z,418.00
2023-06-29T03:34:20.433Z,418.00
2023-06-29T03:35:20.414Z,417.00
2023-06-29T03:36:20.422Z,416.00
2023-06-29T03:37:20.440Z,416.00
2023-06-29T03:38:20.445Z,417.00
2023-06-29T03:39:20.450Z,419.00
2023-06-29T03:40:20.450Z,418.00
2023-06-29T03:41:20.460Z,420.00
2023-06-29T03:42:20.445Z,421.00
2023-06-29T03:43:20.453Z,421.00
2023-06-29T03:44:20.472Z,420.00
2023-06-29T03:45:20.448Z,421.00
2023-06-29T03:46:20.461Z,420.00
2023-06-29T03:47:20.518Z,420.00
2023-06-29T03:48:20.605Z,421.00
2023-06-29T03:49:20.469Z,422.00
2023-06-29T03:50:20.487Z,425.00
2023-06-29T03:51:20.474Z,424.00
2023-06-29T03:52:20.460Z,422.00
2023-06-29T03:53:20.464Z,422.00
2023-06-29T03:54:20.475Z,422.00
2023-06-29T03:55:20.467Z,422.00
2023-06-29T03:56:20.460Z,421.00
2023-06-29T03:57:20.449Z,420.00
2023-06-29T03:58:20.472Z,420.00
2023-06-29T03:59:20.468Z,421.00
2023-06-29T04:00:20.477Z,423.00
2023-06-29T04:01:20.526Z,426.00
2023-06-29T04:02:20.552Z,426.00
2023-06-29T04:03:20.514Z,427.00
2023-06-29T04:04:20.459Z,429.00
2023-06-29T04:05:20.469Z,427.00
2023-06-29T04:06:20.455Z,428.00
2023-06-29T04:07:20.545Z,430.00
2023-06-29T04:08:20.460Z,429.00
2023-06-29T04:09:20.469Z,427.00
2023-06-29T04:10:20.455Z,429.00
2023-06-29T04:11:20.487Z,429.00
2023-06-29T04:12:20.471Z,429.00
2023-06-29T04:13:20.464Z,428.00
2023-06-29T04:14:20.446Z,429.00
2023-06-29T04:15:20.466Z,432.00
2023-06-29T04:16:20.489Z,433.00
2023-06-29T04:17:20.474Z,435.00
2023-06-29T04:18:20.474Z,435.00
2023-06-29T04:19:20.456Z,434.00
2023-06-29T04:20:20.471Z,433.00
2023-06-29T04:21:20.464Z,432.00
2023-06-29T04:22:20.451Z,433.00
2023-06-29T04:23:20.444Z,430.00
2023-06-29T04:24:20.458Z,433.00
2023-06-29T04:25:20.460Z,434.00
2023-06-29T04:26:20.452Z,437.00
2023-06-29T04:27:20.474Z,436.00
2023-06-29T04:28:20.463Z,438.00
2023-06-29T04:29:20.469Z,436.00
2023-06-29T04:30:20.470Z,434.00
2023-06-29T04:31:20.511Z,432.00
2023-06-29T04:32:20.447Z,433.00
2023-06-29T04:33:20.523Z,430.00
2023-06-29T04:34:20.456Z,430.00
2023-06-29T04:35:20.472Z,431.00
2023-06-29T04:36:20.461Z,430.00
2023-06-29T04:37:20.452Z,429.00
2023-06-29T04:38:20.449Z,427.00
2023-06-29T04:39:20.429Z,428.00
2023-06-29T04:40:20.455Z,429.00
2023-06-29T04:41:20.523Z,430.00
2023-06-29T04:42:20.577Z,432.00
2023-06-29T04:43:20.624Z,432.00
2023-06-29T04:44:20.646Z,433.00
2023-06-29T04:45:20.697Z,435.00
2023-06-29T04:46:20.693Z,435.00
2023-06-29T04:47:20.749Z,436.00
2023-06-29T04:48:20.778Z,435.00
2023-06-29T04:49:20.784Z,437.00
2023-06-29T04:50:20.812Z,437.00
2023-06-29T04:51:20.844Z,437.00
2023-06-29T04:52:20.870Z,438.00
2023-06-29T04:53:20.990Z,437.00
2023-06-29T04:54:21.002Z,436.00
2023-06-29T04:55:21.060Z,434.00
2023-06-29T04:56:21.128Z,435.00
2023-06-29T04:57:21.161Z,436.00
2023-06-29T04:58:21.145Z,437.00
2023-06-29T04:59:21.154Z,437.00
2023-06-29T05:00:21.217Z,439.00
2023-06-29T05:01:21.245Z,441.00
2023-06-29T05:02:21.219Z,440.00
2023-06-29T05:03:21.349Z,440.00
2023-06-29T05:04:21.291Z,439.00
2023-06-29T05:05:21.316Z,437.00
2023-06-29T05:06:21.340Z,438.00
2023-06-29T05:07:21.431Z,437.00
2023-06-29T05:08:21.440Z,438.00
2023-06-29T05:09:21.482Z,437.00
2023-06-29T05:10:21.517Z,438.00
2023-06-29T05:11:21.581Z,437.00
2023-06-29T05:12:21.604Z,438.00
2023-06-29T05:13:21.657Z,438.00
2023-06-29T05:14:21.717Z,437.00
2023-06-29T05:15:21.744Z,438.00
2023-06-29T05:16:21.816Z,440.00
2023-06-29T05:17:21.878Z,441.00
2023-06-29T05:18:21.880Z,441.00
2023-06-29T05:19:21.909Z,442.00
2023-06-29T05:20:21.961Z,443.00
2023-06-29T05:21:21.991Z,440.00
2023-06-29T05:22:22.084Z,441.00
2023-06-29T05:23:22.109Z,441.00
2023-06-29T05:24:22.141Z,442.00
2023-06-29T05:25:22.172Z,443.00
2023-06-29T05:26:22.236Z,441.00
2023-06-29T05:27:22.273Z,440.00
2023-06-29T05:28:22.828Z,440.00
2023-06-29T05:29:22.380Z,443.00
2023-06-29T05:30:22.541Z,445.00
2023-06-29T05:31:22.579Z,453.00
2023-06-29T05:32:22.498Z,463.00
2023-06-29T05:33:23.231Z,472.00
2023-06-29T05:34:22.539Z,509.00
2023-06-29T05:35:22.566Z,531.00
2023-06-29T05:36:22.575Z,549.00
2023-06-29T05:37:22.573Z,579.00
2023-06-29T05:38:22.807Z,614.00
2023-06-29T05:39:22.578Z,719.00
2023-06-29T05:40:22.595Z,818.00
2023-06-29T05:41:22.600Z,741.00
2023-06-29T05:42:22.644Z,750.00
2023-06-29T05:43:22.637Z,771.00
2023-06-29T05:44:22.669Z,795.00
2023-06-29T05:45:22.646Z,795.00
2023-06-29T05:46:22.911Z,814.00
2023-06-29T05:47:22.771Z,822.00
2023-06-29T05:48:22.758Z,817.00
2023-06-29T05:49:22.706Z,816.00
2023-06-29T05:50:22.708Z,810.00
2023-06-29T05:51:22.702Z,802.00
2023-06-29T05:52:22.715Z,792.00
2023-06-29T05:53:22.734Z,795.00
2023-06-29T05:54:22.758Z,807.00
2023-06-29T05:55:22.778Z,820.00
2023-06-29T05:56:22.763Z,830.00
2023-06-29T05:57:22.734Z,831.00
2023-06-29T05:58:22.727Z,834.00
2023-06-29T05:59:22.705Z,826.00
2023-06-29T06:00:22.717Z,885.00
2023-06-29T06:01:22.760Z,889.00
2023-06-29T06:02:22.705Z,878.00
2023-06-29T06:03:22.737Z,885.00
2023-06-29T06:04:22.710Z,882.00
2023-06-29T06:05:22.709Z,880.00
2023-06-29T06:06:22.697Z,868.00
2023-06-29T06:07:22.737Z,871.00
2023-06-29T06:08:22.682Z,870.00
2023-06-29T06:09:22.734Z,880.00
2023-06-29T06:10:22.730Z,893.00
2023-06-29T06:11:22.799Z,903.00
2023-06-29T06:12:22.844Z,917.00
2023-06-29T06:13:22.865Z,908.00
2023-06-29T06:14:22.965Z,902.00
2023-06-29T06:15:22.995Z,910.00
2023-06-29T06:16:23.071Z,922.00
2023-06-29T06:17:23.087Z,935.00
2023-06-29T06:18:23.141Z,930.00
2023-06-29T06:19:23.217Z,923.00
2023-06-29T06:20:23.240Z,929.00
2023-06-29T06:21:23.303Z,931.00
2023-06-29T06:22:23.468Z,836.00
2023-06-29T06:23:23.438Z,946.00
2023-06-29T06:24:23.498Z,964.00
2023-06-29T06:25:23.559Z,956.00
2023-06-29T06:26:23.600Z,960.00
2023-06-29T06:27:23.696Z,928.00
2023-06-29T06:28:23.686Z,965.00
2023-06-29T06:29:23.696Z,964.00
2023-06-29T06:30:23.716Z,967.00
2023-06-29T06:31:33.582Z,964.00
2023-06-29T06:32:24.780Z,974.00
2023-06-29T06:33:23.817Z,1001.00
2023-06-29T06:34:23.741Z,1035.00
2023-06-29T06:35:23.727Z,1034.00
2023-06-29T06:36:23.708Z,1022.00
2023-06-29T06:37:23.729Z,1044.00
2023-06-29T06:38:25.821Z,1078.00
2023-06-29T06:39:24.703Z,1096.00
2023-06-29T06:40:23.684Z,1084.00
2023-06-29T06:41:23.750Z,1086.00
2023-06-29T06:42:23.684Z,1091.00
2023-06-29T06:43:24.301Z,1093.00
2023-06-29T06:44:23.651Z,1085.00
2023-06-29T06:45:23.658Z,1061.00
2023-06-29T06:46:23.748Z,1031.00
2023-06-29T06:47:23.731Z,875.00
2023-06-29T06:48:23.787Z,892.00
2023-06-29T06:49:23.819Z,854.00
2023-06-29T06:50:23.869Z,805.00
2023-06-29T06:51:23.875Z,796.00
2023-06-29T06:52:23.961Z,786.00
2023-06-29T06:53:24.297Z,717.00
2023-06-29T06:54:23.990Z,710.00
2023-06-29T06:55:24.031Z,695.00
2023-06-29T06:56:24.087Z,681.00
2023-06-29T06:57:24.082Z,666.00
2023-06-29T06:58:24.081Z,648.00
2023-06-29T06:59:24.050Z,638.00
2023-06-29T07:00:24.061Z,629.00
2023-06-29T07:01:24.147Z,611.00
2023-06-29T07:02:24.172Z,596.00
2023-06-29T07:03:24.319Z,589.00
2023-06-29T07:04:24.092Z,582.00
2023-06-29T07:05:24.084Z,575.00
2023-06-29T07:06:24.121Z,566.00
2023-06-29T07:07:24.301Z,556.00
2023-06-29T07:08:24.070Z,543.00
2023-06-29T07:09:24.077Z,533.00
2023-06-29T07:10:24.077Z,523.00
2023-06-29T07:11:24.078Z,516.00
2023-06-29T07:12:24.095Z,510.00
2023-06-29T07:13:24.078Z,508.00
2023-06-29T07:14:24.095Z,506.00
2023-06-29T07:15:24.120Z,505.00
2023-06-29T07:16:24.137Z,502.00
2023-06-29T07:17:24.153Z,495.00
2023-06-29T07:18:24.161Z,492.00
2023-06-29T07:21:26.168Z,487.00
2023-06-29T07:24:24.118Z,473.00
2023-06-29T07:25:24.103Z,468.00
2023-06-29T07:26:24.098Z,463.00
2023-06-29T07:27:24.123Z,456.00
2023-06-29T07:28:24.121Z,455.00
2023-06-29T07:29:24.063Z,453.00
2023-06-29T07:30:24.136Z,455.00
2023-06-29T07:31:24.148Z,456.00
2023-06-29T07:32:24.116Z,452.00
2023-06-29T07:33:24.061Z,450.00
2023-06-29T07:34:24.058Z,449.00
2023-06-29T07:35:24.024Z,449.00
2023-06-29T07:36:24.034Z,449.00
2023-06-29T07:37:24.002Z,451.00
2023-06-29T07:38:24.011Z,448.00
2023-06-29T07:39:24.017Z,442.00
2023-06-29T07:40:24.107Z,440.00
2023-06-29T07:41:24.000Z,437.00
2023-06-29T07:42:38.261Z,436.00
2023-06-29T07:43:24.975Z,432.00
2023-06-29T07:44:23.988Z,431.00
2023-06-29T07:45:24.005Z,429.00
2023-06-29T07:46:23.968Z,428.00
2023-06-29T07:47:24.061Z,428.00
2023-06-29T07:48:24.054Z,428.00
2023-06-29T07:49:23.937Z,430.00
2023-06-29T07:50:23.969Z,428.00
2023-06-29T07:51:24.095Z,427.00
2023-06-29T07:52:23.939Z,426.00
2023-06-29T07:53:23.914Z,425.00
2023-06-29T07:54:23.905Z,426.00
2023-06-29T07:55:23.931Z,427.00
2023-06-29T07:56:23.969Z,428.00
2023-06-29T07:59:23.895Z,428.00
2023-06-29T08:00:23.889Z,427.00
2023-06-29T08:01:23.883Z,422.00
2023-06-29T08:02:23.937Z,423.00
2023-06-29T08:03:23.873Z,424.00
2023-06-29T08:07:23.905Z,426.00
2023-06-29T08:08:23.862Z,424.00
2023-06-29T08:09:23.812Z,422.00
2023-06-29T08:10:23.810Z,421.00
2023-06-29T08:11:23.782Z,419.00
2023-06-29T08:12:23.784Z,419.00
2023-06-29T08:13:23.779Z,420.00
2023-06-29T08:14:23.774Z,419.00
2023-06-29T08:15:23.755Z,418.00
2023-06-29T08:16:23.773Z,416.00
2023-06-29T08:17:23.789Z,417.00
2023-06-29T08:18:23.743Z,416.00
2023-06-29T08:19:23.794Z,415.00
2023-06-29T08:20:23.770Z,414.00
2023-06-29T08:21:23.724Z,413.00
2023-06-29T08:22:23.728Z,416.00
2023-06-29T08:23:23.720Z,416.00
2023-06-29T08:24:23.725Z,416.00
2023-06-29T08:25:23.696Z,416.00
2023-06-29T08:26:23.718Z,416.00
2023-06-29T08:27:23.713Z,414.00
2023-06-29T08:28:23.706Z,413.00
2023-06-29T08:29:23.722Z,412.00
2023-06-29T08:30:23.730Z,412.00
2023-06-29T08:31:23.700Z,412.00
2023-06-29T08:32:23.776Z,411.00
2023-06-29T08:33:23.721Z,409.00
2023-06-29T08:34:23.652Z,408.00
2023-06-29T08:35:23.657Z,406.00
2023-06-29T08:36:23.635Z,404.00
2023-06-29T08:37:23.612Z,403.00
2023-06-29T08:38:23.617Z,404.00
2023-06-29T08:39:23.621Z,405.00
2023-06-29T08:40:23.669Z,406.00
2023-06-29T08:41:23.601Z,406.00
2023-06-29T08:42:23.577Z,406.00
2023-06-29T08:43:23.603Z,408.00
2023-06-29T08:44:23.594Z,408.00
2023-06-29T08:45:23.605Z,406.00
2023-06-29T08:46:23.610Z,407.00
2023-06-29T08:47:23.589Z,409.00
2023-06-29T08:48:23.549Z,408.00
2023-06-29T08:49:23.548Z,405.00
2023-06-29T08:50:23.546Z,403.00
2023-06-29T08:51:23.517Z,401.00
2023-06-29T08:52:23.524Z,401.00
2023-06-29T08:53:23.573Z,401.00
2023-06-29T08:54:23.512Z,402.00
2023-06-29T08:55:23.515Z,402.00
2023-06-29T08:56:23.483Z,401.00
2023-06-29T08:57:23.514Z,402.00
2023-06-29T08:58:23.826Z,402.00
2023-06-29T08:59:23.481Z,400.00
2023-06-29T09:00:23.469Z,400.00
2023-06-29T09:01:23.553Z,402.00
2023-06-29T09:02:23.512Z,402.00
2023-06-29T09:03:23.691Z,402.00
2023-06-29T09:04:23.441Z,402.00
2023-06-29T09:05:23.465Z,402.00
2023-06-29T09:06:23.424Z,402.00
2023-06-29T09:07:23.476Z,401.00
2023-06-29T09:08:23.505Z,402.00
2023-06-29T09:09:23.397Z,401.00
2023-06-29T09:10:23.450Z,400.00
2023-06-29T09:11:23.380Z,398.00
2023-06-29T09:12:23.370Z,399.00
2023-06-29T09:13:23.816Z,398.00
2023-06-29T09:14:23.371Z,400.00
2023-06-29T09:15:23.374Z,401.00
2023-06-29T09:16:23.378Z,400.00
2023-06-29T09:17:23.509Z,399.00
2023-06-29T09:18:23.361Z,396.00
2023-06-29T09:19:23.328Z,395.00
2023-06-29T09:20:23.339Z,395.00
2023-06-29T09:21:23.340Z,395.00
2023-06-29T09:22:23.338Z,398.00
2023-06-29T09:23:23.313Z,399.00
2023-06-29T09:24:23.317Z,397.00
2023-06-29T09:25:33.250Z,396.00
2023-06-29T09:26:24.306Z,395.00
2023-06-29T09:27:23.315Z,394.00
2023-06-29T09:28:23.321Z,394.00
2023-06-29T09:29:23.342Z,398.00
2023-06-29T09:30:23.258Z,400.00
2023-06-29T09:31:23.291Z,404.00
2023-06-29T09:32:23.246Z,404.00
2023-06-29T09:33:23.247Z,405.00
2023-06-29T09:34:23.235Z,404.00
2023-06-29T09:35:23.248Z,404.00
2023-06-29T09:36:23.216Z,404.00
2023-06-29T09:37:23.255Z,406.00
2023-06-29T09:38:23.227Z,406.00
2023-06-29T09:39:23.213Z,405.00
2023-06-29T09:40:23.197Z,404.00
2023-06-29T09:41:23.208Z,405.00
2023-06-29T09:42:23.300Z,405.00
2023-06-29T09:43:23.233Z,405.00
2023-06-29T09:44:23.221Z,408.00
2023-06-29T09:45:23.183Z,409.00
2023-06-29T09:46:23.199Z,406.00
2023-06-29T09:49:23.340Z,403.00
2023-06-29T09:50:23.324Z,404.00
2023-06-29T09:51:23.359Z,406.00
2023-06-29T09:52:23.175Z,405.00
2023-06-29T09:53:23.137Z,404.00
2023-06-29T09:54:23.117Z,405.00
2023-06-29T09:55:23.096Z,405.00
2023-06-29T09:56:23.109Z,404.00
2023-06-29T09:57:23.083Z,405.00
2023-06-29T09:58:23.075Z,405.00
2023-06-29T09:59:23.093Z,405.00
2023-06-29T10:00:23.059Z,403.00
2023-06-29T10:01:23.105Z,409.00
2023-06-29T10:02:23.158Z,417.00
2023-06-29T10:03:23.140Z,421.00
2023-06-29T10:04:23.088Z,421.00
2023-06-29T10:05:23.057Z,422.00
2023-06-29T10:06:23.035Z,423.00
2023-06-29T10:07:23.115Z,426.00
2023-06-29T10:08:23.036Z,425.00
2023-06-29T10:09:22.994Z,423.00
2023-06-29T10:10:22.983Z,427.00
2023-06-29T10:11:22.999Z,430.00
2023-06-29T10:12:23.004Z,432.00
2023-06-29T10:13:22.986Z,431.00
2023-06-29T10:14:22.959Z,432.00
2023-06-29T10:15:22.957Z,433.00
2023-06-29T10:16:22.965Z,433.00
2023-06-29T10:17:23.011Z,434.00
2023-06-29T10:18:22.944Z,432.00
2023-06-29T10:19:22.922Z,428.00
2023-06-29T10:20:22.937Z,426.00
2023-06-29T10:21:22.908Z,424.00
2023-06-29T10:22:22.901Z,422.00
2023-06-29T10:23:24.150Z,418.00
2023-06-29T10:24:22.909Z,411.00
2023-06-29T10:25:22.891Z,410.00
2023-06-29T10:26:22.903Z,413.00
2023-06-29T10:27:22.882Z,414.00
2023-06-29T10:28:23.342Z,412.00
2023-06-29T10:29:24.270Z,410.00
2023-06-29T10:30:22.870Z,411.00
2023-06-29T10:31:23.031Z,413.00
2023-06-29T10:32:22.830Z,412.00
2023-06-29T10:33:22.844Z,407.00
2023-06-29T10:34:22.842Z,403.00
2023-06-29T10:35:24.027Z,403.00
2023-06-29T10:36:22.906Z,401.00
2023-06-29T10:37:22.808Z,400.00
2023-06-29T10:38:22.830Z,401.00
2023-06-29T10:39:22.804Z,403.00
2023-06-29T10:40:22.793Z,405.00
2023-06-29T10:41:22.780Z,407.00
2023-06-29T10:42:22.816Z,407.00
2023-06-29T10:43:22.775Z,407.00
2023-06-29T10:44:22.781Z,405.00
2023-06-29T10:45:22.753Z,406.00
2023-06-29T10:46:22.777Z,406.00
2023-06-29T10:47:22.764Z,403.00
2023-06-29T10:48:42.873Z,403.00
2023-06-29T10:49:23.741Z,406.00
2023-06-29T10:50:22.723Z,406.00
2023-06-29T10:51:22.708Z,405.00
2023-06-29T10:52:22.696Z,407.00
2023-06-29T10:53:22.702Z,409.00
2023-06-29T10:54:22.759Z,408.00
2023-06-29T10:55:22.676Z,408.00
2023-06-29T10:56:22.683Z,407.00
2023-06-29T10:57:22.668Z,407.00
2023-06-29T10:58:22.662Z,407.00
2023-06-29T10:59:22.665Z,408.00
2023-06-29T11:00:22.642Z,409.00
2023-06-29T11:01:22.681Z,407.00
2023-06-29T11:02:22.732Z,404.00
2023-06-29T11:03:22.648Z,403.00
2023-06-29T11:04:22.722Z,402.00
2023-06-29T11:05:22.642Z,400.00
2023-06-29T11:06:33.534Z,397.00
2023-06-29T11:07:23.654Z,397.00
2023-06-29T11:08:22.578Z,396.00
2023-06-29T11:09:22.590Z,398.00
2023-06-29T11:10:22.577Z,401.00
2023-06-29T11:11:22.571Z,401.00
2023-06-29T11:12:22.567Z,400.00
2023-06-29T11:13:22.565Z,400.00
2023-06-29T11:14:22.566Z,400.00
2023-06-29T11:15:22.559Z,400.00
2023-06-29T11:16:22.604Z,399.00
2023-06-29T11:17:22.564Z,398.00
2023-06-29T11:18:22.519Z,400.00
2023-06-29T11:19:22.525Z,400.00
2023-06-29T11:20:22.493Z,400.00
2023-06-29T11:21:22.527Z,398.00
2023-06-29T11:22:22.491Z,396.00
2023-06-29T11:23:22.526Z,396.00
2023-06-29T11:24:22.469Z,395.00
2023-06-29T11:25:22.471Z,400.00
2023-06-29T11:26:22.465Z,401.00
2023-06-29T11:27:22.469Z,403.00
2023-06-29T11:28:22.515Z,402.00
2023-06-29T11:29:22.611Z,401.00
2023-06-29T11:30:22.464Z,403.00
2023-06-29T11:31:22.473Z,404.00
2023-06-29T11:32:22.485Z,404.00
2023-06-29T11:34:23.400Z,403.00
2023-06-29T11:35:22.437Z,401.00
2023-06-29T11:36:22.511Z,402.00
2023-06-29T11:37:23.984Z,401.00
2023-06-29T11:38:22.446Z,402.00
2023-06-29T11:39:22.364Z,403.00
2023-06-29T11:40:22.383Z,404.00
2023-06-29T11:41:22.370Z,404.00
2023-06-29T11:42:22.414Z,403.00
2023-06-29T11:44:22.347Z,400.00
2023-06-29T11:45:22.328Z,399.00
2023-06-29T11:46:22.366Z,399.00
2023-06-29T11:48:22.356Z,403.00
2023-06-29T11:49:23.063Z,404.00
2023-06-29T11:50:22.329Z,405.00
2023-06-29T11:51:22.284Z,404.00
2023-06-29T11:52:22.312Z,405.00
2023-06-29T11:53:22.305Z,407.00
2023-06-29T11:54:22.290Z,407.00
2023-06-29T11:55:24.044Z,403.00
2023-06-29T11:56:22.250Z,402.00
2023-06-29T11:57:22.269Z,401.00
2023-06-29T11:58:22.253Z,402.00
2023-06-29T11:59:22.256Z,401.00
2023-06-29T12:00:22.278Z,401.00
2023-06-29T12:01:22.827Z,399.00
2023-06-29T12:02:22.286Z,402.00
2023-06-29T12:03:22.299Z,401.00
2023-06-29T12:04:22.338Z,400.00
2023-06-29T12:05:22.212Z,399.00
2023-06-29T12:06:22.192Z,400.00
2023-06-29T12:07:22.293Z,401.00
2023-06-29T12:08:22.541Z,402.00
2023-06-29T12:09:22.348Z,402.00
2023-06-29T12:10:22.178Z,402.00
2023-06-29T12:11:23.044Z,402.00
2023-06-29T12:12:22.210Z,401.00
2023-06-29T12:13:22.170Z,400.00
2023-06-29T12:14:22.345Z,402.00
2023-06-29T12:15:22.164Z,403.00
2023-06-29T12:18:22.310Z,403.00
2023-06-29T12:19:22.890Z,407.00
2023-06-29T12:20:22.227Z,406.00
2023-06-29T12:21:22.488Z,407.00
2023-06-29T12:22:22.086Z,406.00
2023-06-29T12:23:22.079Z,403.00
2023-06-29T12:24:22.106Z,400.00
2023-06-29T12:25:22.058Z,400.00
2023-06-29T12:26:22.070Z,400.00
2023-06-29T12:27:22.074Z,399.00
2023-06-29T12:28:22.041Z,399.00
2023-06-29T12:29:22.059Z,398.00
2023-06-29T12:30:22.293Z,397.00
2023-06-29T12:31:22.044Z,398.00
2023-06-29T12:32:22.013Z,399.00
2023-06-29T12:33:21.996Z,399.00
2023-06-29T12:34:22.022Z,402.00
2023-06-29T12:35:22.001Z,401.00
2023-06-29T12:36:22.013Z,404.00
2023-06-29T12:37:21.973Z,406.00
2023-06-29T12:38:21.998Z,407.00
2023-06-29T12:39:21.968Z,408.00
2023-06-29T12:40:21.967Z,408.00
2023-06-29T12:41:21.975Z,408.00
2023-06-29T12:42:21.967Z,407.00
2023-06-29T12:43:21.943Z,406.00
2023-06-29T12:44:21.925Z,406.00